sensor_id;sensor_type;location;lat;lon;timestamp;temperature;humidity
12907;DHT22;6521;50.498;8.474;2023-07-24T00:01:37;17.10;85.51
12907;DHT22;6521;50.498;8.474;2023-07-24T00:04:07;17.07;85.50
12907;DHT22;6521;50.498;8.474;2023-07-24T00:06:37;17.03;85.54
12907;DHT22;6521;50.498;8.474;2023-07-24T00:09:08;17.02;85.62
12907;DHT22;6521;50.498;8.474;2023-07-24T00:11:38;16.93;85.86
12907;DHT22;6521;50.498;8.474;2023-07-24T00:14:08;16.89;85.92
12907;DHT22;6521;50.498;8.474;2023-07-24T00:16:39;16.87;86.01
12907;DHT22;6521;50.498;8.474;2023-07-24T00:19:09;16.75;86.33
12907;DHT22;6521;50.498;8.474;2023-07-24T00:21:40;16.68;86.52
12907;DHT22;6521;50.498;8.474;2023-07-24T00:24:10;16.64;86.54
12907;DHT22;6521;50.498;8.474;2023-07-24T00:26:40;16.62;86.49
12907;DHT22;6521;50.498;8.474;2023-07-24T00:29:11;16.68;86.33
12907;DHT22;6521;50.498;8.474;2023-07-24T00:31:41;16.72;85.75
12907;DHT22;6521;50.498;8.474;2023-07-24T00:34:13;16.79;85.72
12907;DHT22;6521;50.498;8.474;2023-07-24T00:36:44;16.85;85.54
12907;DHT22;6521;50.498;8.474;2023-07-24T00:39:14;16.87;85.36
12907;DHT22;6521;50.498;8.474;2023-07-24T00:41:45;16.92;84.80
12907;DHT22;6521;50.498;8.474;2023-07-24T00:44:18;16.93;84.88
12907;DHT22;6521;50.498;8.474;2023-07-24T00:46:49;16.99;84.76
12907;DHT22;6521;50.498;8.474;2023-07-24T00:49:23;17.00;84.72
12907;DHT22;6521;50.498;8.474;2023-07-24T00:51:55;17.04;84.48
12907;DHT22;6521;50.498;8.474;2023-07-24T00:54:27;17.04;84.20
12907;DHT22;6521;50.498;8.474;2023-07-24T00:56:58;17.06;83.86
12907;DHT22;6521;50.498;8.474;2023-07-24T00:59:29;17.09;83.63
12907;DHT22;6521;50.498;8.474;2023-07-24T01:02:00;17.13;83.40
12907;DHT22;6521;50.498;8.474;2023-07-24T01:04:31;17.14;83.26
12907;DHT22;6521;50.498;8.474;2023-07-24T01:07:02;17.13;83.13
12907;DHT22;6521;50.498;8.474;2023-07-24T01:09:32;17.12;83.07
12907;DHT22;6521;50.498;8.474;2023-07-24T01:12:10;17.09;83.14
12907;DHT22;6521;50.498;8.474;2023-07-24T01:14:47;17.09;83.30
12907;DHT22;6521;50.498;8.474;2023-07-24T01:17:23;17.09;83.34
12907;DHT22;6521;50.498;8.474;2023-07-24T01:19:55;17.03;83.36
12907;DHT22;6521;50.498;8.474;2023-07-24T01:22:32;17.13;83.21
12907;DHT22;6521;50.498;8.474;2023-07-24T01:25:10;17.12;82.94
12907;DHT22;6521;50.498;8.474;2023-07-24T01:27:45;17.13;82.82
12907;DHT22;6521;50.498;8.474;2023-07-24T01:30:17;17.13;82.77
12907;DHT22;6521;50.498;8.474;2023-07-24T01:32:48;17.14;82.62
12907;DHT22;6521;50.498;8.474;2023-07-24T01:35:20;17.19;82.45
12907;DHT22;6521;50.498;8.474;2023-07-24T01:37:52;17.23;82.10
12907;DHT22;6521;50.498;8.474;2023-07-24T01:40:23;17.24;81.73
12907;DHT22;6521;50.498;8.474;2023-07-24T01:42:53;17.26;81.59
12907;DHT22;6521;50.498;8.474;2023-07-24T01:45:24;17.33;81.25
12907;DHT22;6521;50.498;8.474;2023-07-24T01:47:55;17.35;80.98
12907;DHT22;6521;50.498;8.474;2023-07-24T01:50:25;17.44;80.55
12907;DHT22;6521;50.498;8.474;2023-07-24T01:52:57;17.45;80.39
12907;DHT22;6521;50.498;8.474;2023-07-24T01:55:28;17.47;80.32
12907;DHT22;6521;50.498;8.474;2023-07-24T01:57:59;17.50;80.02
12907;DHT22;6521;50.498;8.474;2023-07-24T02:00:30;17.55;79.65
12907;DHT22;6521;50.498;8.474;2023-07-24T02:03:03;17.60;79.44
12907;DHT22;6521;50.498;8.474;2023-07-24T02:05:33;17.58;79.55
12907;DHT22;6521;50.498;8.474;2023-07-24T02:08:04;17.54;79.71
12907;DHT22;6521;50.498;8.474;2023-07-24T02:10:37;17.57;79.69
12907;DHT22;6521;50.498;8.474;2023-07-24T02:13:08;17.55;79.57
12907;DHT22;6521;50.498;8.474;2023-07-24T02:15:39;17.58;79.36
12907;DHT22;6521;50.498;8.474;2023-07-24T02:18:10;17.64;79.15
12907;DHT22;6521;50.498;8.474;2023-07-24T02:20:41;17.64;79.07
12907;DHT22;6521;50.498;8.474;2023-07-24T02:23:11;17.65;79.05
12907;DHT22;6521;50.498;8.474;2023-07-24T02:25:42;17.62;79.07
12907;DHT22;6521;50.498;8.474;2023-07-24T02:28:13;17.57;79.22
12907;DHT22;6521;50.498;8.474;2023-07-24T02:30:43;17.55;79.29
12907;DHT22;6521;50.498;8.474;2023-07-24T02:33:14;17.51;79.56
12907;DHT22;6521;50.498;8.474;2023-07-24T02:35:45;17.45;79.75
12907;DHT22;6521;50.498;8.474;2023-07-24T02:38:18;17.47;79.73
12907;DHT22;6521;50.498;8.474;2023-07-24T02:40:48;17.45;79.75
12907;DHT22;6521;50.498;8.474;2023-07-24T02:43:19;17.40;79.76
12907;DHT22;6521;50.498;8.474;2023-07-24T02:45:49;17.43;79.73
12907;DHT22;6521;50.498;8.474;2023-07-24T02:48:19;17.41;79.75
12907;DHT22;6521;50.498;8.474;2023-07-24T02:50:50;17.41;79.80
12907;DHT22;6521;50.498;8.474;2023-07-24T02:53:20;17.38;79.79
12907;DHT22;6521;50.498;8.474;2023-07-24T02:55:51;17.38;79.86
12907;DHT22;6521;50.498;8.474;2023-07-24T02:58:21;17.34;80.19
12907;DHT22;6521;50.498;8.474;2023-07-24T03:00:52;17.27;80.31
12907;DHT22;6521;50.498;8.474;2023-07-24T03:03:22;17.26;80.55
12907;DHT22;6521;50.498;8.474;2023-07-24T03:05:53;17.20;81.23
12907;DHT22;6521;50.498;8.474;2023-07-24T03:08:25;17.14;81.12
12907;DHT22;6521;50.498;8.474;2023-07-24T03:10:55;17.13;81.42
12907;DHT22;6521;50.498;8.474;2023-07-24T03:13:25;17.09;81.84
12907;DHT22;6521;50.498;8.474;2023-07-24T03:15:57;17.07;82.16
12907;DHT22;6521;50.498;8.474;2023-07-24T03:18:29;17.04;82.33
12907;DHT22;6521;50.498;8.474;2023-07-24T03:21:00;17.00;82.65
12907;DHT22;6521;50.498;8.474;2023-07-24T03:23:30;16.96;82.77
12907;DHT22;6521;50.498;8.474;2023-07-24T03:26:01;16.97;82.73
12907;DHT22;6521;50.498;8.474;2023-07-24T03:28:31;17.00;82.64
12907;DHT22;6521;50.498;8.474;2023-07-24T03:31:02;17.03;82.47
12907;DHT22;6521;50.498;8.474;2023-07-24T03:33:32;17.02;82.26
12907;DHT22;6521;50.498;8.474;2023-07-24T03:36:03;17.00;82.28
12907;DHT22;6521;50.498;8.474;2023-07-24T03:38:33;16.97;82.36
12907;DHT22;6521;50.498;8.474;2023-07-24T03:41:05;16.93;82.38
12907;DHT22;6521;50.498;8.474;2023-07-24T03:43:35;16.89;82.44
12907;DHT22;6521;50.498;8.474;2023-07-24T03:46:06;16.86;82.53
12907;DHT22;6521;50.498;8.474;2023-07-24T03:48:37;16.83;82.74
12907;DHT22;6521;50.498;8.474;2023-07-24T03:51:08;16.79;82.79
12907;DHT22;6521;50.498;8.474;2023-07-24T03:53:38;16.72;82.84
12907;DHT22;6521;50.498;8.474;2023-07-24T03:56:09;16.69;82.96
12907;DHT22;6521;50.498;8.474;2023-07-24T03:58:39;16.62;83.07
12907;DHT22;6521;50.498;8.474;2023-07-24T04:01:10;16.59;83.16
12907;DHT22;6521;50.498;8.474;2023-07-24T04:03:40;16.54;82.95
12907;DHT22;6521;50.498;8.474;2023-07-24T04:06:11;16.58;82.42
12907;DHT22;6521;50.498;8.474;2023-07-24T04:08:41;16.69;81.96
12907;DHT22;6521;50.498;8.474;2023-07-24T04:11:12;16.79;81.19
12907;DHT22;6521;50.498;8.474;2023-07-24T04:13:42;16.89;80.15
12907;DHT22;6521;50.498;8.474;2023-07-24T04:16:14;16.90;80.03
12907;DHT22;6521;50.498;8.474;2023-07-24T04:18:44;16.96;79.64
12907;DHT22;6521;50.498;8.474;2023-07-24T04:21:14;17.06;79.10
12907;DHT22;6521;50.498;8.474;2023-07-24T04:23:45;17.16;78.84
12907;DHT22;6521;50.498;8.474;2023-07-24T04:26:15;17.30;78.17
12907;DHT22;6521;50.498;8.474;2023-07-24T04:28:46;17.31;77.80
12907;DHT22;6521;50.498;8.474;2023-07-24T04:31:16;17.47;77.34
12907;DHT22;6521;50.498;8.474;2023-07-24T04:33:47;17.53;76.60
12907;DHT22;6521;50.498;8.474;2023-07-24T04:36:17;17.51;76.77
12907;DHT22;6521;50.498;8.474;2023-07-24T04:38:49;17.50;76.57
12907;DHT22;6521;50.498;8.474;2023-07-24T04:41:19;17.53;76.53
12907;DHT22;6521;50.498;8.474;2023-07-24T04:43:50;17.58;76.27
12907;DHT22;6521;50.498;8.474;2023-07-24T04:46:20;17.67;75.75
12907;DHT22;6521;50.498;8.474;2023-07-24T04:48:50;17.72;75.73
12907;DHT22;6521;50.498;8.474;2023-07-24T04:51:21;17.72;75.85
12907;DHT22;6521;50.498;8.474;2023-07-24T04:53:53;17.74;75.90
12907;DHT22;6521;50.498;8.474;2023-07-24T04:56:23;17.78;75.86
12907;DHT22;6521;50.498;8.474;2023-07-24T04:58:54;17.75;75.96
12907;DHT22;6521;50.498;8.474;2023-07-24T05:01:24;17.81;75.89
12907;DHT22;6521;50.498;8.474;2023-07-24T05:03:55;17.88;75.28
12907;DHT22;6521;50.498;8.474;2023-07-24T05:06:26;17.93;74.93
12907;DHT22;6521;50.498;8.474;2023-07-24T05:08:57;17.95;74.93
12907;DHT22;6521;50.498;8.474;2023-07-24T05:11:27;17.96;74.78
12907;DHT22;6521;50.498;8.474;2023-07-24T05:13:57;18.01;74.75
12907;DHT22;6521;50.498;8.474;2023-07-24T05:16:28;18.06;74.60
12907;DHT22;6521;50.498;8.474;2023-07-24T05:18:59;18.10;74.17
12907;DHT22;6521;50.498;8.474;2023-07-24T05:21:30;18.12;74.02
12907;DHT22;6521;50.498;8.474;2023-07-24T05:24:00;18.16;74.02
12907;DHT22;6521;50.498;8.474;2023-07-24T05:26:31;18.23;74.05
12907;DHT22;6521;50.498;8.474;2023-07-24T05:29:02;18.26;73.97
12907;DHT22;6521;50.498;8.474;2023-07-24T05:31:34;18.30;73.84
12907;DHT22;6521;50.498;8.474;2023-07-24T05:34:05;18.29;73.81
12907;DHT22;6521;50.498;8.474;2023-07-24T05:36:35;18.33;73.92
12907;DHT22;6521;50.498;8.474;2023-07-24T05:39:06;18.39;73.52
12907;DHT22;6521;50.498;8.474;2023-07-24T05:41:36;18.46;73.57
12907;DHT22;6521;50.498;8.474;2023-07-24T05:44:07;18.53;73.15
12907;DHT22;6521;50.498;8.474;2023-07-24T05:46:38;18.61;71.95
12907;DHT22;6521;50.498;8.474;2023-07-24T05:49:08;18.67;72.18
12907;DHT22;6521;50.498;8.474;2023-07-24T05:51:39;18.70;71.73
12907;DHT22;6521;50.498;8.474;2023-07-24T05:54:10;18.71;71.85
12907;DHT22;6521;50.498;8.474;2023-07-24T05:56:41;18.74;71.81
12907;DHT22;6521;50.498;8.474;2023-07-24T05:59:11;18.85;71.72
12907;DHT22;6521;50.498;8.474;2023-07-24T06:01:41;18.98;71.43
12907;DHT22;6521;50.498;8.474;2023-07-24T06:04:12;19.19;70.38
12907;DHT22;6521;50.498;8.474;2023-07-24T06:06:43;19.36;69.24
12907;DHT22;6521;50.498;8.474;2023-07-24T06:09:19;19.52;69.13
12907;DHT22;6521;50.498;8.474;2023-07-24T06:11:55;19.63;67.80
12907;DHT22;6521;50.498;8.474;2023-07-24T06:14:26;19.71;68.21
12907;DHT22;6521;50.498;8.474;2023-07-24T06:16:56;19.77;67.72
12907;DHT22;6521;50.498;8.474;2023-07-24T06:19:27;19.80;67.67
12907;DHT22;6521;50.498;8.474;2023-07-24T06:21:57;19.87;68.00
12907;DHT22;6521;50.498;8.474;2023-07-24T06:24:27;19.86;67.41
12907;DHT22;6521;50.498;8.474;2023-07-24T06:26:58;19.88;67.49
12907;DHT22;6521;50.498;8.474;2023-07-24T06:29:28;19.94;67.41
12907;DHT22;6521;50.498;8.474;2023-07-24T06:31:59;19.97;67.66
12907;DHT22;6521;50.498;8.474;2023-07-24T06:34:29;19.98;68.04
12907;DHT22;6521;50.498;8.474;2023-07-24T06:37:00;20.03;67.47
12907;DHT22;6521;50.498;8.474;2023-07-24T06:39:30;20.07;67.67
12907;DHT22;6521;50.498;8.474;2023-07-24T06:42:01;20.14;67.01
12907;DHT22;6521;50.498;8.474;2023-07-24T06:44:33;20.27;66.15
12907;DHT22;6521;50.498;8.474;2023-07-24T06:47:03;20.31;66.60
12907;DHT22;6521;50.498;8.474;2023-07-24T06:49:34;20.39;66.67
12907;DHT22;6521;50.498;8.474;2023-07-24T06:52:04;20.52;66.06
12907;DHT22;6521;50.498;8.474;2023-07-24T06:54:35;20.61;66.30
12907;DHT22;6521;50.498;8.474;2023-07-24T06:57:05;20.61;65.55
12907;DHT22;6521;50.498;8.474;2023-07-24T06:59:36;20.55;65.52
12907;DHT22;6521;50.498;8.474;2023-07-24T07:02:06;20.51;66.02
12907;DHT22;6521;50.498;8.474;2023-07-24T07:04:37;20.51;66.33
12907;DHT22;6521;50.498;8.474;2023-07-24T07:07:07;20.49;66.67
12907;DHT22;6521;50.498;8.474;2023-07-24T07:09:38;20.51;66.54
12907;DHT22;6521;50.498;8.474;2023-07-24T07:12:09;20.55;66.02
12907;DHT22;6521;50.498;8.474;2023-07-24T07:14:39;20.49;66.06
12907;DHT22;6521;50.498;8.474;2023-07-24T07:17:10;20.46;66.78
12907;DHT22;6521;50.498;8.474;2023-07-24T07:19:40;20.38;67.11
12907;DHT22;6521;50.498;8.474;2023-07-24T07:22:11;20.34;68.05
12907;DHT22;6521;50.498;8.474;2023-07-24T07:24:41;20.28;68.40
12907;DHT22;6521;50.498;8.474;2023-07-24T07:27:13;20.18;69.29
12907;DHT22;6521;50.498;8.474;2023-07-24T07:29:47;20.11;70.77
12907;DHT22;6521;50.498;8.474;2023-07-24T07:32:17;20.07;70.15
12907;DHT22;6521;50.498;8.474;2023-07-24T07:34:48;20.07;70.60
12907;DHT22;6521;50.498;8.474;2023-07-24T07:37:18;20.03;70.31
12907;DHT22;6521;50.498;8.474;2023-07-24T07:39:49;20.03;71.00
12907;DHT22;6521;50.498;8.474;2023-07-24T07:42:19;20.03;70.84
12907;DHT22;6521;50.498;8.474;2023-07-24T07:44:50;20.00;71.03
12907;DHT22;6521;50.498;8.474;2023-07-24T07:47:20;20.04;70.51
12907;DHT22;6521;50.498;8.474;2023-07-24T07:49:51;20.13;70.35
12907;DHT22;6521;50.498;8.474;2023-07-24T07:52:21;20.20;70.68
12907;DHT22;6521;50.498;8.474;2023-07-24T07:54:52;20.21;70.64
12907;DHT22;6521;50.498;8.474;2023-07-24T07:57:23;20.21;70.85
12907;DHT22;6521;50.498;8.474;2023-07-24T07:59:53;20.25;69.71
12907;DHT22;6521;50.498;8.474;2023-07-24T08:02:23;20.25;70.63
12907;DHT22;6521;50.498;8.474;2023-07-24T08:04:54;20.31;70.40
12907;DHT22;6521;50.498;8.474;2023-07-24T08:07:24;20.38;69.90
12907;DHT22;6521;50.498;8.474;2023-07-24T08:09:55;20.45;69.25
12907;DHT22;6521;50.498;8.474;2023-07-24T08:12:26;20.45;69.16
12907;DHT22;6521;50.498;8.474;2023-07-24T08:14:57;20.55;68.58
12907;DHT22;6521;50.498;8.474;2023-07-24T08:17:27;20.65;67.68
12907;DHT22;6521;50.498;8.474;2023-07-24T08:19:57;20.71;67.25
12907;DHT22;6521;50.498;8.474;2023-07-24T08:22:28;20.90;66.61
12907;DHT22;6521;50.498;8.474;2023-07-24T08:24:58;21.22;67.23
12907;DHT22;6521;50.498;8.474;2023-07-24T08:27:28;21.41;67.09
12907;DHT22;6521;50.498;8.474;2023-07-24T08:29:59;21.61;63.89
12907;DHT22;6521;50.498;8.474;2023-07-24T08:32:30;21.79;63.72
12907;DHT22;6521;50.498;8.474;2023-07-24T08:35:00;22.09;63.65
12907;DHT22;6521;50.498;8.474;2023-07-24T08:37:31;22.36;62.99
12907;DHT22;6521;50.498;8.474;2023-07-24T08:40:01;22.61;60.89
12907;DHT22;6521;50.498;8.474;2023-07-24T08:42:32;22.73;60.70
12907;DHT22;6521;50.498;8.474;2023-07-24T08:45:04;22.64;58.92
12907;DHT22;6521;50.498;8.474;2023-07-24T08:47:34;22.54;58.73
12907;DHT22;6521;50.498;8.474;2023-07-24T08:50:07;22.35;59.46
12907;DHT22;6521;50.498;8.474;2023-07-24T08:52:40;22.13;60.71
12907;DHT22;6521;50.498;8.474;2023-07-24T08:55:12;22.06;59.71
12907;DHT22;6521;50.498;8.474;2023-07-24T08:57:43;22.12;58.01
12907;DHT22;6521;50.498;8.474;2023-07-24T09:00:14;22.28;57.78
12907;DHT22;6521;50.498;8.474;2023-07-24T09:02:44;22.47;56.12
12907;DHT22;6521;50.498;8.474;2023-07-24T09:05:14;22.53;55.34
12907;DHT22;6521;50.498;8.474;2023-07-24T09:07:46;22.42;55.49
12907;DHT22;6521;50.498;8.474;2023-07-24T09:10:24;22.51;56.03
12907;DHT22;6521;50.498;8.474;2023-07-24T09:12:55;22.65;55.42
12907;DHT22;6521;50.498;8.474;2023-07-24T09:15:25;22.83;55.19
12907;DHT22;6521;50.498;8.474;2023-07-24T09:17:56;23.05;55.43
12907;DHT22;6521;50.498;8.474;2023-07-24T09:20:38;23.33;51.83
12907;DHT22;6521;50.498;8.474;2023-07-24T09:23:10;23.25;51.33
12907;DHT22;6521;50.498;8.474;2023-07-24T09:25:43;23.41;51.34
12907;DHT22;6521;50.498;8.474;2023-07-24T09:28:17;23.48;51.06
12907;DHT22;6521;50.498;8.474;2023-07-24T09:30:55;23.66;50.72
12907;DHT22;6521;50.498;8.474;2023-07-24T09:33:40;23.79;50.92
12907;DHT22;6521;50.498;8.474;2023-07-24T09:36:11;23.87;51.20
12907;DHT22;6521;50.498;8.474;2023-07-24T09:38:42;24.16;50.25
12907;DHT22;6521;50.498;8.474;2023-07-24T09:41:13;24.52;49.62
12907;DHT22;6521;50.498;8.474;2023-07-24T09:43:44;24.99;48.33
12907;DHT22;6521;50.498;8.474;2023-07-24T09:46:15;25.30;46.64
12907;DHT22;6521;50.498;8.474;2023-07-24T09:48:46;25.54;45.36
12907;DHT22;6521;50.498;8.474;2023-07-24T09:51:17;25.82;45.78
12907;DHT22;6521;50.498;8.474;2023-07-24T09:54:19;25.72;45.45
12907;DHT22;6521;50.498;8.474;2023-07-24T09:56:53;25.94;45.91
12907;DHT22;6521;50.498;8.474;2023-07-24T09:59:26;25.98;46.28
12907;DHT22;6521;50.498;8.474;2023-07-24T10:01:57;26.02;45.53
12907;DHT22;6521;50.498;8.474;2023-07-24T10:04:28;25.70;46.13
12907;DHT22;6521;50.498;8.474;2023-07-24T10:06:59;25.07;47.52
12907;DHT22;6521;50.498;8.474;2023-07-24T10:09:29;24.89;48.59
12907;DHT22;6521;50.498;8.474;2023-07-24T10:12:01;24.73;49.20
12907;DHT22;6521;50.498;8.474;2023-07-24T10:14:32;24.90;49.21
12907;DHT22;6521;50.498;8.474;2023-07-24T10:17:02;25.38;48.37
12907;DHT22;6521;50.498;8.474;2023-07-24T10:19:39;25.85;47.54
12907;DHT22;6521;50.498;8.474;2023-07-24T10:22:17;26.05;46.80
12907;DHT22;6521;50.498;8.474;2023-07-24T10:24:49;26.11;46.27
12907;DHT22;6521;50.498;8.474;2023-07-24T10:27:23;26.42;46.49
12907;DHT22;6521;50.498;8.474;2023-07-24T10:30:01;26.92;44.57
12907;DHT22;6521;50.498;8.474;2023-07-24T10:32:47;27.04;44.57
12907;DHT22;6521;50.498;8.474;2023-07-24T10:35:19;27.24;43.80
12907;DHT22;6521;50.498;8.474;2023-07-24T10:38:02;27.83;44.04
12907;DHT22;6521;50.498;8.474;2023-07-24T10:40:33;27.83;42.39
12907;DHT22;6521;50.498;8.474;2023-07-24T10:43:08;27.73;42.86
12907;DHT22;6521;50.498;8.474;2023-07-24T10:45:49;27.56;42.75
12907;DHT22;6521;50.498;8.474;2023-07-24T10:48:25;27.16;43.65
12907;DHT22;6521;50.498;8.474;2023-07-24T10:50:55;26.61;44.82
12907;DHT22;6521;50.498;8.474;2023-07-24T10:53:26;26.03;46.09
12907;DHT22;6521;50.498;8.474;2023-07-24T10:56:00;25.58;47.43
12907;DHT22;6521;50.498;8.474;2023-07-24T10:58:30;25.31;47.87
12907;DHT22;6521;50.498;8.474;2023-07-24T11:01:04;25.26;48.27
12907;DHT22;6521;50.498;8.474;2023-07-24T11:03:40;25.05;49.21
12907;DHT22;6521;50.498;8.474;2023-07-24T11:06:15;24.99;49.83
12907;DHT22;6521;50.498;8.474;2023-07-24T11:08:53;24.97;50.13
12907;DHT22;6521;50.498;8.474;2023-07-24T11:11:30;25.00;49.40
12907;DHT22;6521;50.498;8.474;2023-07-24T11:14:02;24.75;50.14
12907;DHT22;6521;50.498;8.474;2023-07-24T11:16:33;24.27;51.61
12907;DHT22;6521;50.498;8.474;2023-07-24T11:19:03;24.22;52.13
12907;DHT22;6521;50.498;8.474;2023-07-24T11:21:36;24.16;52.33
12907;DHT22;6521;50.498;8.474;2023-07-24T11:24:06;24.13;52.24
12907;DHT22;6521;50.498;8.474;2023-07-24T11:26:40;24.13;52.94
12907;DHT22;6521;50.498;8.474;2023-07-24T11:29:11;24.56;52.39
12907;DHT22;6521;50.498;8.474;2023-07-24T11:31:42;25.02;51.90
12907;DHT22;6521;50.498;8.474;2023-07-24T11:34:12;25.65;50.69
12907;DHT22;6521;50.498;8.474;2023-07-24T11:36:43;26.26;48.29
12907;DHT22;6521;50.498;8.474;2023-07-24T11:39:21;26.37;47.12
12907;DHT22;6521;50.498;8.474;2023-07-24T11:41:52;26.22;47.54
12907;DHT22;6521;50.498;8.474;2023-07-24T11:44:27;26.16;47.81
12907;DHT22;6521;50.498;8.474;2023-07-24T11:47:04;26.31;47.60
12907;DHT22;6521;50.498;8.474;2023-07-24T11:49:35;26.23;47.19
12907;DHT22;6521;50.498;8.474;2023-07-24T11:52:06;26.31;46.67
12907;DHT22;6521;50.498;8.474;2023-07-24T11:54:37;26.63;46.13
12907;DHT22;6521;50.498;8.474;2023-07-24T11:57:16;26.67;46.46
12907;DHT22;6521;50.498;8.474;2023-07-24T11:59:47;26.60;46.36
12907;DHT22;6521;50.498;8.474;2023-07-24T12:02:18;26.81;45.13
12907;DHT22;6521;50.498;8.474;2023-07-24T12:04:56;27.00;44.67
12907;DHT22;6521;50.498;8.474;2023-07-24T12:07:35;27.27;44.07
12907;DHT22;6521;50.498;8.474;2023-07-24T12:10:06;27.11;44.30
12907;DHT22;6521;50.498;8.474;2023-07-24T12:12:44;26.59;45.83
12907;DHT22;6521;50.498;8.474;2023-07-24T12:15:14;26.49;45.86
12907;DHT22;6521;50.498;8.474;2023-07-24T12:17:45;26.46;45.81
12907;DHT22;6521;50.498;8.474;2023-07-24T12:20:15;26.80;45.48
12907;DHT22;6521;50.498;8.474;2023-07-24T12:22:46;27.15;44.29
12907;DHT22;6521;50.498;8.474;2023-07-24T12:25:17;27.50;43.79
12907;DHT22;6521;50.498;8.474;2023-07-24T12:27:48;27.53;43.15
12907;DHT22;6521;50.498;8.474;2023-07-24T12:30:19;27.53;42.11
12907;DHT22;6521;50.498;8.474;2023-07-24T12:32:50;27.01;43.18
12907;DHT22;6521;50.498;8.474;2023-07-24T12:35:20;27.16;42.81
12907;DHT22;6521;50.498;8.474;2023-07-24T12:37:50;27.21;42.89
12907;DHT22;6521;50.498;8.474;2023-07-24T12:40:21;27.12;43.33
12907;DHT22;6521;50.498;8.474;2023-07-24T12:42:51;26.83;42.57
12907;DHT22;6521;50.498;8.474;2023-07-24T12:45:23;26.86;43.15
12907;DHT22;6521;50.498;8.474;2023-07-24T12:47:53;26.97;42.82
12907;DHT22;6521;50.498;8.474;2023-07-24T12:50:25;27.14;42.72
12907;DHT22;6521;50.498;8.474;2023-07-24T12:52:56;27.10;42.44
12907;DHT22;6521;50.498;8.474;2023-07-24T12:55:26;26.91;43.22
12907;DHT22;6521;50.498;8.474;2023-07-24T12:57:57;26.74;44.09
12907;DHT22;6521;50.498;8.474;2023-07-24T13:00:28;26.56;45.09
12907;DHT22;6521;50.498;8.474;2023-07-24T13:03:00;26.35;45.65
12907;DHT22;6521;50.498;8.474;2023-07-24T13:05:30;26.31;45.62
12907;DHT22;6521;50.498;8.474;2023-07-24T13:08:01;25.99;46.95
12907;DHT22;6521;50.498;8.474;2023-07-24T13:10:32;25.77;47.94
12907;DHT22;6521;50.498;8.474;2023-07-24T13:13:02;25.60;48.58
12907;DHT22;6521;50.498;8.474;2023-07-24T13:15:33;25.57;49.16
12907;DHT22;6521;50.498;8.474;2023-07-24T13:18:03;25.60;48.46
12907;DHT22;6521;50.498;8.474;2023-07-24T13:20:34;25.89;47.77
12907;DHT22;6521;50.498;8.474;2023-07-24T13:23:04;26.50;45.55
12907;DHT22;6521;50.498;8.474;2023-07-24T13:25:35;26.70;44.99
12907;DHT22;6521;50.498;8.474;2023-07-24T13:28:05;26.86;45.03
12907;DHT22;6521;50.498;8.474;2023-07-24T13:30:36;26.88;44.86
12907;DHT22;6521;50.498;8.474;2023-07-24T13:33:06;26.60;45.83
12907;DHT22;6521;50.498;8.474;2023-07-24T13:35:37;26.18;46.74
12907;DHT22;6521;50.498;8.474;2023-07-24T13:38:09;25.89;47.16
12907;DHT22;6521;50.498;8.474;2023-07-24T13:40:40;25.47;50.70
12907;DHT22;6521;50.498;8.474;2023-07-24T13:43:10;24.61;55.77
12907;DHT22;6521;50.498;8.474;2023-07-24T13:45:40;23.89;59.63
12907;DHT22;6521;50.498;8.474;2023-07-24T13:48:11;23.48;62.22
12907;DHT22;6521;50.498;8.474;2023-07-24T13:50:42;23.45;62.25
12907;DHT22;6521;50.498;8.474;2023-07-24T13:53:12;23.28;62.62
12907;DHT22;6521;50.498;8.474;2023-07-24T13:55:42;23.14;62.83
12907;DHT22;6521;50.498;8.474;2023-07-24T13:58:13;22.84;63.49
12907;DHT22;6521;50.498;8.474;2023-07-24T14:00:43;22.81;63.43
12907;DHT22;6521;50.498;8.474;2023-07-24T14:03:14;22.84;64.84
12907;DHT22;6521;50.498;8.474;2023-07-24T14:05:44;23.01;67.99
12907;DHT22;6521;50.498;8.474;2023-07-24T14:08:15;23.45;65.88
12907;DHT22;6521;50.498;8.474;2023-07-24T14:10:45;24.13;63.50
12907;DHT22;6521;50.498;8.474;2023-07-24T14:13:17;24.54;60.33
12907;DHT22;6521;50.498;8.474;2023-07-24T14:15:49;24.58;59.73
12907;DHT22;6521;50.498;8.474;2023-07-24T14:18:20;24.11;59.59
12907;DHT22;6521;50.498;8.474;2023-07-24T14:20:50;24.06;57.56
12907;DHT22;6521;50.498;8.474;2023-07-24T14:23:22;24.28;57.67
12907;DHT22;6521;50.498;8.474;2023-07-24T14:25:53;24.78;56.20
12907;DHT22;6521;50.498;8.474;2023-07-24T14:28:23;25.03;55.11
12907;DHT22;6521;50.498;8.474;2023-07-24T14:30:54;25.23;55.72
12907;DHT22;6521;50.498;8.474;2023-07-24T14:33:24;25.45;54.74
12907;DHT22;6521;50.498;8.474;2023-07-24T14:35:55;25.57;54.73
12907;DHT22;6521;50.498;8.474;2023-07-24T14:38:25;25.82;53.62
12907;DHT22;6521;50.498;8.474;2023-07-24T14:40:56;25.80;53.43
12907;DHT22;6521;50.498;8.474;2023-07-24T14:43:26;25.86;52.47
12907;DHT22;6521;50.498;8.474;2023-07-24T14:45:56;25.75;52.41
12907;DHT22;6521;50.498;8.474;2023-07-24T14:48:27;25.70;51.98
12907;DHT22;6521;50.498;8.474;2023-07-24T14:50:57;25.86;51.78
12907;DHT22;6521;50.498;8.474;2023-07-24T14:53:28;26.12;50.79
12907;DHT22;6521;50.498;8.474;2023-07-24T14:55:58;26.16;49.65
12907;DHT22;6521;50.498;8.474;2023-07-24T14:58:29;26.25;49.55
12907;DHT22;6521;50.498;8.474;2023-07-24T15:00:59;26.18;50.29
12907;DHT22;6521;50.498;8.474;2023-07-24T15:03:30;26.29;49.29
12907;DHT22;6521;50.498;8.474;2023-07-24T15:06:00;25.91;50.27
12907;DHT22;6521;50.498;8.474;2023-07-24T15:08:35;25.88;50.83
12907;DHT22;6521;50.498;8.474;2023-07-24T15:11:05;25.74;51.55
12907;DHT22;6521;50.498;8.474;2023-07-24T15:13:36;26.01;51.22
12907;DHT22;6521;50.498;8.474;2023-07-24T15:16:06;25.94;50.64
12907;DHT22;6521;50.498;8.474;2023-07-24T15:18:37;26.33;50.07
12907;DHT22;6521;50.498;8.474;2023-07-24T15:21:08;26.33;49.64
12907;DHT22;6521;50.498;8.474;2023-07-24T15:23:39;26.22;49.50
12907;DHT22;6521;50.498;8.474;2023-07-24T15:26:09;26.25;48.34
12907;DHT22;6521;50.498;8.474;2023-07-24T15:28:40;26.28;48.28
12907;DHT22;6521;50.498;8.474;2023-07-24T15:31:12;25.94;48.99
12907;DHT22;6521;50.498;8.474;2023-07-24T15:33:42;25.98;49.44
12907;DHT22;6521;50.498;8.474;2023-07-24T15:36:13;26.02;45.64
12907;DHT22;6521;50.498;8.474;2023-07-24T15:38:43;25.86;45.58
12907;DHT22;6521;50.498;8.474;2023-07-24T15:41:13;25.61;46.88
12907;DHT22;6521;50.498;8.474;2023-07-24T15:43:44;25.61;47.10
12907;DHT22;6521;50.498;8.474;2023-07-24T15:46:14;25.80;46.83
12907;DHT22;6521;50.498;8.474;2023-07-24T15:48:44;25.96;42.76
12907;DHT22;6521;50.498;8.474;2023-07-24T15:51:15;25.51;43.59
12907;DHT22;6521;50.498;8.474;2023-07-24T15:53:45;25.41;44.31
12907;DHT22;6521;50.498;8.474;2023-07-24T15:56:16;25.38;45.08
12907;DHT22;6521;50.498;8.474;2023-07-24T15:58:48;25.34;45.28
12907;DHT22;6521;50.498;8.474;2023-07-24T16:01:18;25.05;45.99
12907;DHT22;6521;50.498;8.474;2023-07-24T16:03:49;24.92;46.98
12907;DHT22;6521;50.498;8.474;2023-07-24T16:06:19;24.86;47.14
12907;DHT22;6521;50.498;8.474;2023-07-24T16:08:50;24.78;47.39
12907;DHT22;6521;50.498;8.474;2023-07-24T16:11:20;24.56;47.80